Time;durP1;ratioP1;P1;durP2;ratioP2;P2;SDS_P1;SDS_P2;PMS_P1;PMS_P2;Temp;Humidity;BMP_temperature;BMP_pressure;BME280_temperature;BME280_humidity;BME280_pressure;Samples;Min_cycle;Max_cycle;Signal;HPM_P1;HPM_P2
2021/06/06 00:00:24;;;;;;;;;19.50;18.50;;;;;19.50;53.30;99017.63;6172259;28;126316;-60
2021/06/06 00:03:29;;;;;;;;;22.00;18.20;;;;;19.51;53.27;99012.97;6189676;28;123794;-61
2021/06/06 00:06:35;;;;;;;;;24.00;21.40;;;;;19.46;53.82;99008.34;6189318;28;124556;-61
2021/06/06 00:09:38;;;;;;;;;23.25;20.75;;;;;19.40;54.09;99010.22;6171684;28;125997;-61
2021/06/06 00:12:41;;;;;;;;;24.25;24.00;;;;;19.39;54.18;99016.00;6189393;28;126970;-60
2021/06/06 00:15:44;;;;;;;;;25.50;23.50;;;;;19.41;54.23;99013.78;6189233;28;126299;-61
2021/06/06 00:18:48;;;;;;;;;21.00;19.60;;;;;19.44;54.21;99019.56;6171045;28;124971;-60
2021/06/06 00:21:53;;;;;;;;;23.00;22.00;;;;;19.43;53.94;99017.06;6186770;28;125937;-60
2021/06/06 00:24:56;;;;;;;;;25.00;22.00;;;;;19.28;53.93;98989.75;6185050;28;124578;-61
2021/06/06 00:27:59;;;;;;;;;27.20;24.20;;;;;19.46;54.74;99017.38;6181504;28;126652;-60
2021/06/06 00:31:05;;;;;;;;;31.50;27.50;;;;;19.47;55.08;99020.91;6185347;28;124931;-61
2021/06/06 00:34:08;;;;;;;;;30.50;26.50;;;;;19.47;54.97;99020.91;6187435;28;124777;-60
2021/06/06 00:37:13;;;;;;;;;27.00;25.40;;;;;19.47;54.34;99020.91;6186462;28;126798;-61
2021/06/06 00:40:20;;;;;;;;;33.60;31.00;;;;;19.34;55.02;99011.34;6207389;28;124967;-61
2021/06/06 00:43:23;;;;;;;;;31.20;29.20;;;;;19.42;54.59;99018.97;6202728;28;126669;-61
2021/06/06 00:46:28;;;;;;;;;31.25;27.00;;;;;19.45;54.30;99021.19;6186224;28;124333;-61
2021/06/06 00:49:33;;;;;;;;;25.00;22.00;;;;;19.42;54.29;99009.97;6176139;28;125887;-61
2021/06/06 00:52:39;;;;;;;;;27.00;25.60;;;;;19.40;53.99;99006.69;6186205;28;126176;-60
2021/06/06 00:55:42;;;;;;;;;28.60;26.40;;;;;19.41;53.67;99014.59;6188646;28;124842;-60
2021/06/06 00:58:49;;;;;;;;;30.25;27.25;;;;;19.31;53.85;99020.09;6175114;28;126083;-61
2021/06/06 01:01:56;;;;;;;;;26.60;24.60;;;;;19.29;54.04;99027.75;6184020;28;125135;-61
2021/06/06 01:04:59;;;;;;;;;22.50;21.50;;;;;19.29;53.79;99029.66;6186087;28;126813;-60
2021/06/06 01:08:07;;;;;;;;;22.20;21.20;;;;;19.25;53.30;99034.06;6177494;28;125003;-61
2021/06/06 01:11:18;;;;;;;;;22.75;21.00;;;;;19.17;53.08;99027.19;6177795;28;126510;-61
2021/06/06 01:14:29;;;;;;;;;24.00;22.00;;;;;19.10;53.10;99021.22;6187190;28;124998;-60
2021/06/06 01:17:41;;;;;;;;;21.60;20.60;;;;;19.03;53.23;99028.84;6182117;28;125466;-60
2021/06/06 01:20:53;;;;;;;;;25.00;22.40;;;;;18.98;52.82;99026.94;6181074;28;125951;-60
2021/06/06 01:24:13;;;;;;;;;23.60;23.00;;;;;18.96;52.80;99026.38;6186322;28;124918;-60
2021/06/06 01:27:23;;;;;;;;;23.80;23.20;;;;;18.91;53.08;99020.13;6181528;28;126233;-60
2021/06/06 01:30:32;;;;;;;;;23.25;19.00;;;;;18.63;52.99;98990.56;6182164;28;125426;-61
2021/06/06 01:33:43;;;;;;;;;20.00;20.00;;;;;18.81;53.10;99022.84;6178480;28;125315;-61
2021/06/06 01:36:55;;;;;;;;;24.00;22.50;;;;;18.84;53.40;99031.31;6163469;28;122834;-61
2021/06/06 01:40:08;;;;;;;;;24.00;23.00;;;;;18.86;53.44;99031.03;6176054;28;126150;-60
2021/06/06 01:43:19;;;;;;;;;27.60;25.20;;;;;18.82;53.80;99027.19;6185716;28;126487;-60
2021/06/06 01:46:30;;;;;;;;;27.40;26.00;;;;;18.84;53.32;99028.56;6185881;28;126315;-61
2021/06/06 01:49:37;;;;;;;;;27.00;25.40;;;;;18.84;53.27;99023.09;6175225;28;126192;-61
2021/06/06 01:52:43;;;;;;;;;27.25;25.00;;;;;18.79;53.82;99019.53;6176409;28;126798;-60
2021/06/06 01:55:53;;;;;;;;;26.00;25.40;;;;;18.78;53.46;99035.13;6181118;28;123858;-60
2021/06/06 01:58:59;;;;;;;;;28.25;25.00;;;;;18.69;53.90;99031.28;6166205;28;126111;-60
2021/06/06 02:02:12;;;;;;;;;30.00;28.00;;;;;18.60;54.14;99024.72;6187949;28;123484;-60
2021/06/06 02:05:16;;;;;;;;;29.00;28.00;;;;;18.60;54.15;99030.19;6183916;28;125405;-60
2021/06/06 02:08:21;;;;;;;;;28.20;26.80;;;;;18.61;54.41;99029.09;6178074;28;124680;-61
2021/06/06 02:11:34;;;;;;;;;29.60;27.60;;;;;18.62;54.10;99027.97;6182681;28;127073;-61
2021/06/06 02:14:41;;;;;;;;;27.50;23.50;;;;;18.60;53.83;99030.19;6185530;28;125970;-61
2021/06/06 02:17:50;;;;;;;;;29.40;28.60;;;;;18.56;53.93;99027.19;6163746;28;124751;-60
2021/06/06 02:21:01;;;;;;;;;28.40;24.00;;;;;18.55;53.98;99021.97;6174305;28;126081;-60
2021/06/06 02:24:07;;;;;;;;;29.00;26.25;;;;;18.58;53.83;99029.63;6179215;28;125818;-61
2021/06/06 02:27:16;;;;;;;;;27.00;25.60;;;;;18.58;53.69;99026.88;6184899;28;126170;-60
2021/06/06 02:30:23;;;;;;;;;24.60;23.20;;;;;18.54;53.18;99028.53;6174349;28;127181;-61
2021/06/06 02:33:37;;;;;;;;;24.25;23.00;;;;;18.54;53.40;99034.81;6183278;28;125922;-61
2021/06/06 02:36:51;;;;;;;;;25.00;24.40;;;;;18.55;53.18;99043.81;6184759;28;126682;-61
2021/06/06 02:39:59;;;;;;;;;28.60;27.00;;;;;18.58;53.41;99035.06;6174057;28;126059;-61
2021/06/06 02:43:09;;;;;;;;;30.00;27.75;;;;;18.59;53.12;99031.25;6177255;28;127313;-60
2021/06/06 02:46:13;;;;;;;;;29.80;27.00;;;;;18.62;53.08;99035.38;6162381;28;126355;-60
2021/06/06 02:49:21;;;;;;;;;31.00;29.00;;;;;18.58;53.18;99033.16;6169309;28;124796;-61
2021/06/06 02:52:38;;;;;;;;;32.00;30.00;;;;;18.57;53.13;99033.44;6183317;28;123214;-60
2021/06/06 02:55:47;;;;;;;;;30.00;28.00;;;;;18.55;53.15;99041.09;6182612;28;124857;-61
2021/06/06 02:58:57;;;;;;;;;30.00;28.00;;;;;18.51;53.28;99039.97;6172076;28;126226;-60
2021/06/06 03:02:04;;;;;;;;;29.00;29.00;;;;;18.48;53.19;99046.75;6184345;28;127139;-60
2021/06/06 03:05:09;;;;;;;;;28.20;27.40;;;;;18.44;53.02;99036.66;6183419;28;127307;-60
2021/06/06 03:08:17;;;;;;;;;31.00;28.00;;;;;18.39;53.22;99045.66;6175507;28;124899;-61
2021/06/06 03:11:26;;;;;;;;;29.00;27.00;;;;;18.26;53.04;99032.50;6181382;28;124549;-60
2021/06/06 03:14:34;;;;;;;;;29.00;27.40;;;;;18.33;53.03;99048.63;6182711;28;125424;-61
2021/06/06 03:17:45;;;;;;;;;27.75;26.00;;;;;18.17;53.08;99040.41;6183151;28;124915;-60
2021/06/06 03:20:54;;;;;;;;;31.20;28.00;;;;;18.17;53.21;99048.59;6176203;28;126942;-61
2021/06/06 03:24:05;;;;;;;;;29.00;26.00;;;;;18.14;53.15;99042.81;6188380;28;124772;-61
2021/06/06 03:27:15;;;;;;;;;31.00;27.75;;;;;18.10;53.14;99028.91;6188661;28;123916;-61
2021/06/06 03:30:31;;;;;;;;;28.40;26.60;;;;;18.28;52.96;99041.25;6182146;28;124727;-61
2021/06/06 03:33:47;;;;;;;;;27.00;25.00;;;;;18.31;53.20;99040.72;6188251;28;124611;-61
2021/06/06 03:37:00;;;;;;;;;28.80;27.00;;;;;18.31;53.45;99043.44;6188703;28;126677;-61
2021/06/06 03:40:23;;;;;;;;;29.40;26.60;;;;;18.29;53.27;99044.78;6179808;28;127234;-60
2021/06/06 03:43:34;;;;;;;;;30.00;27.60;;;;;18.32;52.84;99042.38;6188640;28;124753;-60
2021/06/06 03:46:38;;;;;;;;;31.40;27.40;;;;;18.30;52.69;99036.34;6189390;28;127765;-60
2021/06/06 03:49:44;;;;;;;;;31.40;29.40;;;;;18.29;52.74;99044.78;6178119;28;127671;-60
2021/06/06 03:52:48;;;;;;;;;25.00;25.00;;;;;18.24;52.81;99039.31;6188920;28;124932;-61
2021/06/06 03:55:51;;;;;;;;;29.50;26.50;;;;;18.17;52.87;99031.41;6187846;28;123955;-60
2021/06/06 03:58:55;;;;;;;;;28.40;27.00;;;;;18.26;53.05;99039.88;6193805;28;126022;-60
2021/06/06 04:01:59;;;;;;;;;28.20;27.20;;;;;18.32;52.87;99039.63;6188840;28;126478;-60
2021/06/06 04:05:04;;;;;;;;;25.60;25.60;;;;;18.37;52.96;99041.56;6189557;28;127165;-61
2021/06/06 04:08:09;;;;;;;;;28.40;27.40;;;;;18.39;53.12;99033.91;6168180;28;124857;-61
2021/06/06 04:11:20;;;;;;;;;30.00;27.00;;;;;18.47;53.74;99050.56;6183952;28;127328;-61
2021/06/06 04:14:32;;;;;;;;;30.60;28.00;;;;;18.46;53.57;99039.94;6182359;28;126948;-61
2021/06/06 04:17:39;;;;;;;;;28.75;27.00;;;;;18.69;53.77;99052.31;6183863;28;124733;-60
2021/06/06 04:20:44;;;;;;;;;31.00;27.00;;;;;18.86;53.48;99041.97;6180204;28;125804;-61
2021/06/06 04:23:48;;;;;;;;;31.00;28.00;;;;;18.96;53.94;99041.97;6184590;28;125979;-60
2021/06/06 04:26:52;;;;;;;;;30.00;28.00;;;;;19.16;53.64;99050.16;6183786;28;126064;-61
2021/06/06 04:29:56;;;;;;;;;25.60;25.00;;;;;19.33;53.55;99036.22;6174367;28;125976;-61
2021/06/06 04:33:06;;;;;;;;;27.00;26.00;;;;;19.45;53.29;99045.78;6185957;28;126317;-60
2021/06/06 04:36:11;;;;;;;;;27.20;25.60;;;;;19.61;52.98;99048.50;6186444;28;124386;-60
2021/06/06 04:39:14;;;;;;;;;27.00;25.40;;;;;19.70;53.39;99052.31;6170974;28;125757;-60
2021/06/06 04:42:21;;;;;;;;;29.00;26.00;;;;;19.84;53.18;99043.25;6170079;28;126091;-61
2021/06/06 04:45:28;;;;;;;;;25.40;24.00;;;;;19.96;53.41;99031.19;6178806;28;126073;-61
2021/06/06 04:48:36;;;;;;;;;24.00;23.00;;;;;20.26;52.84;99050.22;6175492;28;125544;-60
2021/06/06 04:51:40;;;;;;;;;24.00;22.20;;;;;20.40;52.72;99045.81;6180934;28;126086;-61
2021/06/06 04:54:53;;;;;;;;;25.00;24.00;;;;;20.68;52.97;99061.53;6183206;28;124915;-61
2021/06/06 04:57:59;;;;;;;;;26.00;24.33;;;;;20.86;52.90;99054.59;6177521;28;125987;-61
2021/06/06 05:01:07;;;;;;;;;24.00;23.80;;;;;20.92;52.69;99049.84;6181593;28;126416;-61
2021/06/06 05:04:12;;;;;;;;;25.40;24.00;;;;;21.11;52.60;99056.31;6186232;28;124809;-61
2021/06/06 05:07:15;;;;;;;;;25.80;24.00;;;;;21.20;52.14;99054.63;6184607;28;126161;-61
2021/06/06 05:10:18;;;;;;;;;25.40;24.40;;;;;21.33;51.70;99053.13;6180813;28;124875;-61
2021/06/06 05:13:24;;;;;;;;;30.20;28.60;;;;;21.45;51.04;99067.31;6185689;28;126494;-61
2021/06/06 05:16:27;;;;;;;;;26.00;24.00;;;;;21.62;50.66;99051.22;6186131;28;125081;-61
2021/06/06 05:19:35;;;;;;;;;25.20;25.00;;;;;21.76;50.54;99063.13;6174610;28;127053;-61
2021/06/06 05:22:38;;;;;;;;;25.00;23.00;;;;;21.86;50.13;99063.03;6187273;28;125951;-61
2021/06/06 05:25:42;;;;;;;;;24.40;23.40;;;;;21.84;49.84;99047.97;6186531;28;126791;-61
2021/06/06 05:28:46;;;;;;;;;24.00;23.00;;;;;22.04;49.97;99069.72;6177652;28;124267;-61
2021/06/06 05:31:49;;;;;;;;;23.00;22.00;;;;;22.14;50.22;99064.09;6188421;28;124695;-61
2021/06/06 05:34:53;;;;;;;;;21.00;21.00;;;;;22.34;50.29;99069.34;6187461;28;126101;-60
2021/06/06 05:37:57;;;;;;;;;24.00;23.00;;;;;22.39;49.35;99071.22;6180162;28;126928;-61
2021/06/06 05:41:01;;;;;;;;;25.00;23.00;;;;;22.54;49.61;99064.69;6183106;28;127090;-60
2021/06/06 05:44:05;;;;;;;;;24.60;22.60;;;;;22.59;49.16;99061.88;6187727;28;123746;-61
2021/06/06 05:47:08;;;;;;;;;25.60;24.00;;;;;22.65;49.01;99063.47;6186517;28;126221;-61
2021/06/06 05:50:15;;;;;;;;;26.00;24.00;;;;;22.87;49.48;99064.53;6175493;28;126389;-61
2021/06/06 05:53:25;;;;;;;;;25.20;23.00;;;;;23.07;48.95;99063.41;6185787;28;125007;-61
2021/06/06 05:56:27;;;;;;;;;24.60;23.60;;;;;23.14;48.67;99049.28;6187419;28;126172;-61
2021/06/06 05:59:30;;;;;;;;;27.00;25.00;;;;;23.47;48.83;99072.13;6175951;28;125161;-60
2021/06/06 06:02:33;;;;;;;;;24.00;21.40;;;;;23.56;47.90;99081.31;6186744;28;126910;-61
2021/06/06 06:05:37;;;;;;;;;24.00;23.00;;;;;23.73;47.54;99082.41;6185981;28;123046;-61
2021/06/06 06:08:42;;;;;;;;;24.50;24.00;;;;;23.68;47.78;99084.44;6175594;28;126015;-61
2021/06/06 06:11:45;;;;;;;;;27.00;24.60;;;;;23.84;47.88;99080.28;6186395;28;127142;-61
2021/06/06 06:14:48;;;;;;;;;27.80;25.40;;;;;24.01;47.48;99079.69;6186980;28;125857;-61
2021/06/06 06:17:55;;;;;;;;;26.00;24.00;;;;;24.15;47.29;99081.31;6178765;28;124847;-61
2021/06/06 06:21:01;;;;;;;;;26.60;25.00;;;;;23.85;47.41;99050.81;6183535;28;126350;-61
2021/06/06 06:24:05;;;;;;;;;27.80;25.00;;;;;23.98;47.29;99089.38;6184662;28;126512;-61
2021/06/06 06:27:08;;;;;;;;;27.00;25.40;;;;;23.98;47.48;99091.31;6185653;28;125617;-61
2021/06/06 06:30:33;;;;;;;;;27.80;26.80;;;;;24.16;47.61;99088.50;6174916;28;124683;-61
2021/06/06 06:33:35;;;;;;;;;27.00;25.40;;;;;24.25;47.00;99094.09;6183382;28;125351;-61
2021/06/06 06:36:40;;;;;;;;;27.40;25.00;;;;;24.43;46.77;99095.13;6184864;28;126435;-61
2021/06/06 06:39:42;;;;;;;;;24.40;23.00;;;;;24.64;46.87;99096.31;6173642;28;124267;-61
2021/06/06 06:42:46;;;;;;;;;25.75;24.75;;;;;24.67;46.34;99068.16;6182460;28;127477;-61
2021/06/06 06:45:48;;;;;;;;;26.00;24.60;;;;;25.12;46.48;99091.09;6184713;28;124334;-61
2021/06/06 06:48:52;;;;;;;;;26.60;25.60;;;;;25.37;45.10;99097.97;6173577;28;126318;-61
2021/06/06 06:51:56;;;;;;;;;22.00;21.00;;;;;25.49;43.17;99103.75;6185104;28;126336;-61
2021/06/06 06:55:00;;;;;;;;;19.20;17.00;;;;;25.67;43.00;99102.75;6184293;28;124930;-61
2021/06/06 06:58:05;;;;;;;;;21.00;18.40;;;;;25.89;42.62;99101.91;6176652;28;125162;-61
2021/06/06 07:01:09;;;;;;;;;22.40;20.00;;;;;26.12;42.24;99099.91;6178703;28;124831;-61
2021/06/06 07:04:11;;;;;;;;;20.60;19.00;;;;;26.36;40.91;99094.81;6181991;28;98793;-61
2021/06/06 07:07:16;;;;;;;;;20.00;18.20;;;;;26.58;41.57;99094.75;6183467;28;124979;-61
2021/06/06 07:10:21;;;;;;;;;21.50;20.50;;;;;26.75;40.73;99093.94;6175750;28;124625;-61
2021/06/06 07:13:24;;;;;;;;;21.40;20.00;;;;;27.00;40.85;99097.91;6185212;28;126213;-61
2021/06/06 07:16:31;;;;;;;;;22.40;20.40;;;;;27.14;39.99;99093.03;6185306;28;125795;-61
2021/06/06 07:19:35;;;;;;;;;23.00;22.00;;;;;27.30;39.90;99088.63;6173885;28;127073;-61
2021/06/06 07:22:39;;;;;;;;;21.60;20.00;;;;;27.34;39.17;99097.91;6185300;28;125445;-61
2021/06/06 07:25:44;;;;;;;;;22.00;21.00;;;;;27.53;39.13;99100.38;6184998;28;125996;-61
2021/06/06 07:28:47;;;;;;;;;20.00;18.50;;;;;27.69;38.83;99095.94;6174681;28;125960;-61
2021/06/06 07:31:54;;;;;;;;;27.75;25.75;;;;;27.80;38.37;99096.41;6182778;28;125916;-61
2021/06/06 07:34:57;;;;;;;;;23.00;22.00;;;;;27.75;36.52;99102.94;6184187;28;124661;-61
2021/06/06 07:38:02;;;;;;;;;24.00;23.00;;;;;27.76;37.85;99098.22;6174700;28;126381;-61
2021/06/06 07:41:05;;;;;;;;;21.40;19.80;;;;;27.81;37.41;99089.69;6180829;28;125024;-61
2021/06/06 07:44:08;;;;;;;;;20.00;19.00;;;;;27.85;37.78;99091.50;6183597;28;126356;-61
2021/06/06 07:47:11;;;;;;;;;22.25;21.00;;;;;28.07;37.41;99092.41;6182379;28;126461;-61
2021/06/06 07:50:18;;;;;;;;;24.80;21.20;;;;;28.24;36.93;99092.38;6174183;28;125845;-61
2021/06/06 07:53:22;;;;;;;;;19.40;18.40;;;;;28.37;35.89;99102.41;6181168;28;127034;-61
2021/06/06 07:56:26;;;;;;;;;24.00;21.00;;;;;28.58;35.18;99097.75;6184547;28;126149;-61
2021/06/06 07:59:33;;;;;;;;;22.00;21.40;;;;;28.75;35.33;99100.44;6173942;28;124848;-61
2021/06/06 08:02:36;;;;;;;;;21.00;21.00;;;;;28.66;35.16;99098.84;6183235;28;124368;-61
2021/06/06 08:05:41;;;;;;;;;22.60;21.00;;;;;28.46;35.17;99094.88;6194160;28;126953;-61
2021/06/06 08:08:45;;;;;;;;;21.00;19.50;;;;;28.55;36.48;99095.63;6175091;28;125969;-61
2021/06/06 08:11:48;;;;;;;;;18.40;17.40;;;;;28.73;35.95;99082.50;6186249;28;125944;-61
2021/06/06 08:14:51;;;;;;;;;22.20;20.20;;;;;29.14;35.20;99099.16;6188056;28;125024;-61
2021/06/06 08:17:54;;;;;;;;;20.00;18.00;;;;;29.35;34.48;99099.19;6180051;28;127194;-61
2021/06/06 08:21:01;;;;;;;;;16.00;16.00;;;;;29.56;34.86;99097.22;6185322;28;127341;-61
2021/06/06 08:24:07;;;;;;;;;20.60;19.60;;;;;29.79;33.94;99096.78;6184639;28;127138;-61
2021/06/06 08:27:10;;;;;;;;;18.00;18.00;;;;;30.06;33.57;99101.75;6177002;28;124299;-61
2021/06/06 08:30:16;;;;;;;;;18.60;18.00;;;;;30.19;32.29;99106.19;6178622;28;126807;-61
2021/06/06 08:33:23;;;;;;;;;21.00;20.00;;;;;30.23;32.55;99103.50;6188560;28;125779;-61
2021/06/06 08:36:30;;;;;;;;;18.40;17.80;;;;;30.29;32.48;99105.72;6188367;28;125954;-61
2021/06/06 08:39:35;;;;;;;;;19.40;19.00;;;;;30.57;32.51;99108.66;6177222;28;124503;-61
2021/06/06 08:42:45;;;;;;;;;18.00;17.40;;;;;30.71;32.16;99086.84;6185614;28;125187;-61
2021/06/06 08:45:51;;;;;;;;;18.00;17.00;;;;;30.87;31.61;99106.41;6186110;28;125875;-61
2021/06/06 08:48:56;;;;;;;;;16.67;16.00;;;;;31.15;31.96;99104.53;6176897;28;123864;-61
2021/06/06 08:52:11;;;;;;;;;17.00;17.00;;;;;30.88;30.46;99108.88;6187962;28;127163;-61
2021/06/06 08:55:30;;;;;;;;;19.00;17.00;;;;;30.67;31.35;99097.06;6185485;28;125975;-62
2021/06/06 08:58:41;;;;;;;;;15.00;14.00;;;;;30.29;31.24;99074.31;6174946;28;125770;-61
2021/06/06 09:01:50;;;;;;;;;18.00;16.00;;;;;30.36;31.21;99105.94;6188509;28;126897;-61
2021/06/06 09:04:53;;;;;;;;;17.33;16.00;;;;;30.51;31.31;99096.13;6188089;28;125804;-61
2021/06/06 09:08:00;;;;;;;;;18.00;16.80;;;;;30.49;31.15;99096.50;6178985;28;126558;-62
2021/06/06 09:11:10;;;;;;;;;19.00;18.00;;;;;30.43;30.65;99086.72;6181079;28;125930;-61
2021/06/06 09:14:13;;;;;;;;;18.00;17.25;;;;;30.63;31.18;99086.97;6185505;28;124227;-61
2021/06/06 09:17:17;;;;;;;;;19.00;19.00;;;;;30.74;32.02;99080.56;6185200;28;124481;-61
2021/06/06 09:20:39;;;;;;;;;16.00;14.00;;;;;31.14;31.30;99088.16;6181325;28;125180;-61
2021/06/06 09:23:42;;;;;;;;;16.00;15.00;;;;;31.36;29.56;99090.41;6185110;28;127043;-61
2021/06/06 09:26:46;;;;;;;;;15.00;14.00;;;;;31.09;28.87;99088.41;6187004;28;125924;-61
2021/06/06 09:30:00;;;;;;;;;14.20;14.20;;;;;30.63;29.80;99079.44;6173254;28;126157;-61
2021/06/06 09:33:10;;;;;;;;;10.00;10.00;;;;;30.66;29.59;99077.91;6185945;28;124958;-61
2021/06/06 09:36:20;;;;;;;;;14.00;13.00;;;;;30.56;29.93;99093.09;6187412;28;127033;-61
2021/06/06 09:39:25;;;;;;;;;11.40;11.40;;;;;30.68;29.92;99083.94;6172958;28;126734;-61
2021/06/06 09:42:37;;;;;;;;;14.80;14.00;;;;;30.44;30.16;99065.28;6183057;28;124814;-61
2021/06/06 09:45:41;;;;;;;;;13.40;12.60;;;;;30.96;31.17;99091.19;6183145;28;125272;-62
2021/06/06 09:48:45;;;;;;;;;14.00;14.00;;;;;31.13;30.91;99081.00;6175238;28;125838;-61
2021/06/06 09:51:48;;;;;;;;;16.00;16.00;;;;;31.31;29.84;99085.91;6187047;28;124626;-62
2021/06/06 09:54:54;;;;;;;;;16.20;13.80;;;;;31.13;29.03;99089.34;6185739;28;126071;-62
2021/06/06 09:58:10;;;;;;;;;13.00;13.00;;;;;31.34;29.45;99090.75;6180011;28;125214;-61
2021/06/06 10:01:25;;;;;;;;;16.60;14.00;;;;;31.70;29.84;99084.25;6181145;28;124438;-62
2021/06/06 10:04:31;;;;;;;;;13.20;12.00;;;;;32.09;28.86;99081.69;6187209;28;125931;-61
2021/06/06 10:07:39;;;;;;;;;11.00;9.00;;;;;32.23;25.98;99084.84;6165346;28;123284;-62
2021/06/06 10:10:44;;;;;;;;;11.00;10.00;;;;;31.94;26.21;99086.06;6181791;28;125910;-62
2021/06/06 10:13:54;;;;;;;;;11.00;11.00;;;;;31.98;26.13;99077.81;6186996;28;127088;-62
2021/06/06 10:17:02;;;;;;;;;13.20;13.00;;;;;32.10;28.17;99078.56;6187262;28;124883;-61
2021/06/06 10:20:14;;;;;;;;;11.00;10.00;;;;;31.96;26.57;99069.00;6177317;28;125993;-62
2021/06/06 10:23:21;;;;;;;;;10.80;10.20;;;;;31.81;26.86;99067.81;6162327;28;124858;-62
2021/06/06 10:26:32;;;;;;;;;11.00;11.00;;;;;31.82;26.22;99074.97;6160614;28;124608;-61
2021/06/06 10:29:42;;;;;;;;;10.60;10.00;;;;;31.97;26.58;99063.03;6169831;28;125299;-62
2021/06/06 10:32:47;;;;;;;;;9.80;9.80;;;;;32.00;25.21;99062.34;6186922;28;123717;-61
2021/06/06 10:35:51;;;;;;;;;10.60;10.60;;;;;32.21;26.47;99056.50;6187122;28;126010;-62
2021/06/06 10:38:54;;;;;;;;;8.00;7.50;;;;;32.36;25.46;99041.72;6175270;28;126021;-62
2021/06/06 10:42:02;;;;;;;;;7.00;7.00;;;;;32.67;22.47;99063.22;6186837;28;124826;-62
2021/06/06 10:45:15;;;;;;;;;8.00;8.00;;;;;32.56;21.65;99064.91;6187148;28;125981;-61
2021/06/06 10:48:24;;;;;;;;;8.00;7.00;;;;;32.49;22.44;99062.78;6179222;28;125257;-62
2021/06/06 10:51:34;;;;;;;;;6.80;6.40;;;;;32.62;22.45;99057.88;6184043;28;124984;-62
2021/06/06 10:54:41;;;;;;;;;8.00;8.00;;;;;32.65;23.67;99046.03;6186915;28;125687;-61
2021/06/06 10:57:44;;;;;;;;;6.00;5.00;;;;;32.79;22.17;99057.53;6180454;28;123851;-62
2021/06/06 11:00:59;;;;;;;;;6.00;6.00;;;;;33.06;22.66;99059.31;6180199;28;126546;-61
2021/06/06 11:04:11;;;;;;;;;6.40;6.00;;;;;33.30;20.29;99052.66;6185204;28;125839;-61
2021/06/06 11:07:39;;;;;;;;;7.00;7.00;;;;;33.34;21.35;99053.53;6160391;28;126067;-61
2021/06/06 11:10:42;;;;;;;;;7.00;7.00;;;;;33.09;22.82;99054.97;6176053;28;124692;-62
2021/06/06 11:13:48;;;;;;;;;9.00;8.00;;;;;33.12;24.13;99037.50;6174622;28;125413;-62
2021/06/06 11:16:53;;;;;;;;;9.00;8.00;;;;;32.86;22.96;99048.47;6166834;28;126128;-62
2021/06/06 11:20:09;;;;;;;;;7.00;7.00;;;;;33.01;23.60;99044.81;6172288;28;125687;-62
2021/06/06 11:23:14;;;;;;;;;8.00;8.00;;;;;32.76;23.54;99046.25;6183626;28;125798;-61
2021/06/06 11:26:21;;;;;;;;;7.00;7.00;;;;;32.99;23.50;99041.59;6185336;28;126395;-61
2021/06/06 11:29:39;;;;;;;;;6.00;6.00;;;;;33.23;23.01;99044.16;6171901;28;126317;-61
2021/06/06 11:32:56;;;;;;;;;7.40;7.00;;;;;33.24;21.80;99037.34;6181312;28;126394;-61
2021/06/06 11:36:01;;;;;;;;;9.60;8.60;;;;;33.02;21.73;99035.28;6184899;28;123560;-62
2021/06/06 11:39:15;;;;;;;;;8.00;8.00;;;;;32.91;23.14;99029.47;6177743;28;126906;-62
2021/06/06 11:42:25;;;;;;;;;9.00;9.00;;;;;33.06;23.78;99028.59;6187563;28;125992;-62
2021/06/06 11:45:32;;;;;;;;;10.00;9.25;;;;;32.94;22.71;99025.91;6189738;28;126416;-62
2021/06/06 11:48:46;;;;;;;;;8.80;8.00;;;;;33.17;24.37;99028.03;6179460;28;125428;-62
2021/06/06 11:51:50;;;;;;;;;9.00;9.00;;;;;33.51;23.68;99019.53;6190314;28;126395;-62
2021/06/06 11:54:56;;;;;;;;;11.00;9.00;;;;;33.58;22.53;99018.84;6189804;28;125860;-62
2021/06/06 11:58:08;;;;;;;;;8.20;8.20;;;;;33.59;22.71;99014.88;6182309;28;124881;-62
2021/06/06 12:01:14;;;;;;;;;9.50;9.00;;;;;33.57;23.24;98994.06;6185608;28;125965;-62
2021/06/06 12:04:27;;;;;;;;;9.80;9.40;;;;;33.95;23.38;99013.56;6189906;28;124660;-62
2021/06/06 12:07:31;;;;;;;;;8.20;8.20;;;;;34.20;22.28;99014.00;6185170;28;126261;-62
2021/06/06 12:10:36;;;;;;;;;9.00;9.00;;;;;34.11;22.00;98969.44;6180403;28;125506;-62
2021/06/06 12:13:40;;;;;;;;;10.00;8.60;;;;;34.02;21.44;99015.66;6187270;28;125868;-62
2021/06/06 12:16:49;;;;;;;;;7.00;6.80;;;;;34.04;23.38;99011.31;6189105;28;126091;-62
2021/06/06 12:19:56;;;;;;;;;12.00;10.00;;;;;34.06;22.78;98969.78;6178388;28;125983;-62
2021/06/06 12:23:08;;;;;;;;;9.40;8.80;;;;;34.15;22.03;99003.91;6188886;28;125856;-62
2021/06/06 12:26:16;;;;;;;;;11.00;10.00;;;;;33.78;21.68;98989.69;6189036;28;125665;-61
2021/06/06 12:29:27;;;;;;;;;9.00;8.00;;;;;33.70;21.92;98996.34;6177712;28;124836;-61
2021/06/06 12:32:31;;;;;;;;;8.80;8.00;;;;;33.49;22.28;98998.72;6189288;28;124877;-62
2021/06/06 12:35:41;;;;;;;;;9.00;8.40;;;;;33.64;23.76;98995.00;6188852;28;124910;-62
2021/06/06 12:38:45;;;;;;;;;9.00;9.00;;;;;33.85;23.44;98994.59;6177329;28;126434;-62
2021/06/06 12:41:50;;;;;;;;;8.00;8.00;;;;;34.00;22.45;99002.06;6184951;28;126131;-62
2021/06/06 12:44:58;;;;;;;;;9.00;9.00;;;;;33.63;21.56;98989.78;6186755;28;123495;-62
2021/06/06 12:48:08;;;;;;;;;13.00;12.00;;;;;33.34;22.67;98988.44;6180058;28;124529;-61
2021/06/06 12:51:17;;;;;;;;;9.00;8.60;;;;;33.44;23.20;98980.25;6181277;28;126699;-62
2021/06/06 12:54:24;;;;;;;;;11.00;9.40;;;;;33.65;23.10;98984.63;6187040;28;123848;-62
2021/06/06 12:57:32;;;;;;;;;9.25;9.25;;;;;33.64;22.65;98977.41;6183986;28;126236;-62
2021/06/06 13:00:42;;;;;;;;;9.00;9.00;;;;;33.45;22.98;98992.25;6181166;28;125594;-61
2021/06/06 13:03:46;;;;;;;;;8.40;8.40;;;;;33.38;23.75;98989.34;6185731;28;126615;-62
2021/06/06 13:06:52;;;;;;;;;9.00;9.00;;;;;32.86;22.41;98982.28;6187258;28;124815;-62
2021/06/06 13:09:56;;;;;;;;;8.40;8.40;;;;;32.54;23.21;98964.81;6175460;28;124614;-62
2021/06/06 13:12:59;;;;;;;;;7.25;7.00;;;;;32.82;24.52;98986.97;6186863;28;125892;-62
2021/06/06 13:16:13;;;;;;;;;8.00;7.00;;;;;32.87;21.71;98975.53;6184708;28;125131;-62
2021/06/06 13:19:20;;;;;;;;;6.00;6.00;;;;;33.01;22.22;98981.41;6175701;28;126035;-61
2021/06/06 13:22:29;;;;;;;;;8.60;8.00;;;;;33.25;23.05;98976.69;6185087;28;125196;-61
2021/06/06 13:25:38;;;;;;;;;8.00;7.00;;;;;33.43;22.07;98987.03;6185624;28;125479;-62
2021/06/06 13:28:42;;;;;;;;;6.25;6.25;;;;;33.59;21.72;98986.91;6176696;28;124861;-62
2021/06/06 13:31:57;;;;;;;;;5.00;4.80;;;;;33.66;21.48;98981.47;6187609;28;125448;-62
2021/06/06 13:35:02;;;;;;;;;7.00;6.00;;;;;33.77;21.13;98981.69;6188250;28;126462;-61
2021/06/06 13:38:08;;;;;;;;;10.00;9.00;;;;;33.61;21.57;98962.19;6171937;28;126639;-61
2021/06/06 13:41:13;;;;;;;;;7.20;7.00;;;;;33.58;22.61;98939.75;6182807;28;124340;-61
2021/06/06 13:44:15;;;;;;;;;7.00;6.00;;;;;33.69;21.13;98974.34;6187297;28;124942;-62
2021/06/06 13:47:23;;;;;;;;;8.00;8.00;;;;;33.48;22.14;98967.16;6183045;28;125223;-62
2021/06/06 13:50:32;;;;;;;;;8.00;7.00;;;;;33.47;21.64;98971.16;6180323;28;126159;-62
2021/06/06 13:53:37;;;;;;;;;5.00;5.00;;;;;33.46;20.93;98965.91;6188039;28;125723;-62
2021/06/06 13:56:40;;;;;;;;;7.00;7.00;;;;;32.97;20.17;98960.97;6187751;28;124883;-62
2021/06/06 13:59:43;;;;;;;;;6.75;6.75;;;;;32.78;20.93;98962.94;6175818;28;126208;-61
2021/06/06 14:02:49;;;;;;;;;7.00;7.00;;;;;32.78;21.64;98952.59;6186964;28;124995;-61
2021/06/06 14:05:54;;;;;;;;;7.00;7.00;;;;;32.69;21.25;98954.00;6178739;28;126801;-61
2021/06/06 14:08:58;;;;;;;;;8.00;8.00;;;;;32.66;22.06;98952.72;6172933;28;126093;-62
2021/06/06 14:12:02;;;;;;;;;7.00;7.00;;;;;32.78;22.34;98955.38;6187557;28;124917;-62